Time;durP1;ratioP1;P1;durP2;ratioP2;P2;SDS_P1;SDS_P2;PMS_P1;PMS_P2;Temp;Humidity;BMP_temperature;BMP_pressure;BME280_temperature;BME280_humidity;BME280_pressure;Samples;Min_cycle;Max_cycle;Signal;HPM_P1;HPM_P2
2023/05/01 00:01:47;;;;;;;7.80;5.40;;;10.80;99.90;;;;;;4953647;28;20480;-74
2023/05/01 00:04:14;;;;;;;7.10;5.83;;;10.80;99.90;;;;;;4954140;28;20458;-75
2023/05/01 00:06:42;;;;;;;8.37;5.90;;;10.70;99.90;;;;;;4952900;28;20458;-75
2023/05/01 00:09:09;;;;;;;13.30;5.37;;;10.70;99.90;;;;;;4953840;28;20534;-75
2023/05/01 00:11:36;;;;;;;8.13;5.97;;;10.70;99.90;;;;;;4949315;28;20845;-75
2023/05/01 00:14:02;;;;;;;7.73;5.97;;;10.70;99.90;;;;;;4952290;28;20465;-75
2023/05/01 00:16:29;;;;;;;7.70;5.50;;;10.70;99.90;;;;;;4953437;28;20457;-75
2023/05/01 00:18:56;;;;;;;6.40;5.53;;;10.60;99.90;;;;;;4953334;28;20520;-75
2023/05/01 00:21:22;;;;;;;7.50;6.30;;;10.60;99.90;;;;;;4953445;28;20477;-75
2023/05/01 00:23:50;;;;;;;10.73;6.73;;;10.60;99.90;;;;;;4953337;28;20454;-75
2023/05/01 00:26:17;;;;;;;6.87;6.17;;;10.50;99.90;;;;;;4953218;28;20545;-75
2023/05/01 00:28:44;;;;;;;8.40;6.87;;;10.50;99.90;;;;;;4952947;28;20497;-75
2023/05/01 00:31:10;;;;;;;7.50;6.80;;;10.50;99.90;;;;;;4953471;28;20513;-75
2023/05/01 00:33:37;;;;;;;10.03;6.70;;;10.40;99.90;;;;;;4953096;28;20517;-75
2023/05/01 00:36:04;;;;;;;7.77;6.77;;;10.40;99.90;;;;;;4953064;28;20469;-75
2023/05/01 00:38:30;;;;;;;10.47;7.03;;;10.30;99.90;;;;;;4953365;28;21028;-75
2023/05/01 00:40:58;;;;;;;9.70;6.60;;;10.30;99.90;;;;;;4952972;28;20478;-75
2023/05/01 00:43:25;;;;;;;7.10;5.90;;;10.20;99.90;;;;;;4952998;28;20950;-75
2023/05/01 00:45:52;;;;;;;9.83;6.27;;;10.20;99.90;;;;;;4952789;28;20450;-75
2023/05/01 00:48:18;;;;;;;9.33;6.30;;;10.10;99.90;;;;;;4952827;28;20496;-75
2023/05/01 00:50:46;;;;;;;12.40;6.37;;;10.10;99.90;;;;;;4952949;28;20478;-75
2023/05/01 00:53:12;;;;;;;12.70;6.87;;;10.10;99.90;;;;;;4953343;28;20498;-75
2023/05/01 00:55:42;;;;;;;7.53;6.83;;;10.00;99.90;;;;;;4950184;28;20886;-75
2023/05/01 00:58:11;;;;;;;9.60;6.37;;;10.00;99.90;;;;;;4953001;28;20457;-75
2023/05/01 01:00:37;;;;;;;8.40;6.50;;;10.00;99.90;;;;;;4952869;28;20477;-75
2023/05/01 01:03:04;;;;;;;7.17;6.10;;;9.90;99.90;;;;;;4952877;28;20494;-75
2023/05/01 01:05:34;;;;;;;8.73;6.50;;;9.90;99.90;;;;;;4952294;28;20520;-75
2023/05/01 01:08:10;;;;;;;11.70;6.20;;;9.90;99.90;;;;;;4951871;28;20541;-75
2023/05/01 01:10:46;;;;;;;6.63;5.90;;;9.90;99.90;;;;;;4948683;28;20970;-75
2023/05/01 01:13:22;;;;;;;9.40;6.13;;;9.80;99.90;;;;;;4952903;28;21037;-75
2023/05/01 01:15:57;;;;;;;11.63;6.40;;;9.80;99.90;;;;;;4952244;28;20454;-75
2023/05/01 01:18:28;;;;;;;12.97;6.53;;;9.70;99.90;;;;;;4952504;28;20821;-75
2023/05/01 01:21:00;;;;;;;10.70;6.67;;;9.70;99.90;;;;;;4952550;28;21045;-75
2023/05/01 01:24:05;;;;;;;7.53;6.00;;;9.70;99.90;;;;;;4951901;28;20956;-75
2023/05/01 01:26:48;;;;;;;9.43;6.60;;;9.70;99.90;;;;;;4941645;28;20512;-75
2023/05/01 01:29:41;;;;;;;6.93;6.23;;;9.70;99.90;;;;;;4952277;28;20575;-75
2023/05/01 01:32:27;;;;;;;10.60;6.77;;;9.70;99.90;;;;;;4952683;28;20458;-75
2023/05/01 01:35:00;;;;;;;8.43;6.10;;;9.70;99.90;;;;;;4952023;28;20461;-75
2023/05/01 01:37:32;;;;;;;7.10;6.40;;;9.60;99.90;;;;;;4952330;28;20465;-75
2023/05/01 01:40:05;;;;;;;8.37;6.00;;;9.60;99.90;;;;;;4951824;28;20477;-75
2023/05/01 01:42:37;;;;;;;11.67;6.53;;;9.60;99.90;;;;;;4953010;28;20458;-75
2023/05/01 01:45:09;;;;;;;13.13;7.10;;;9.60;99.90;;;;;;4951970;28;20954;-75
2023/05/01 01:47:40;;;;;;;11.60;6.20;;;9.60;99.90;;;;;;4947817;28;20864;-75
2023/05/01 01:50:11;;;;;;;10.63;7.13;;;9.60;99.90;;;;;;4952008;28;20969;-75
2023/05/01 01:52:40;;;;;;;9.67;6.20;;;9.60;99.90;;;;;;4952534;28;20454;-75
2023/05/01 01:55:10;;;;;;;11.73;6.77;;;9.50;99.90;;;;;;4951289;28;20465;-75
2023/05/01 01:57:39;;;;;;;7.10;6.10;;;9.50;99.90;;;;;;4951129;28;20525;-75
2023/05/01 02:00:09;;;;;;;10.93;6.70;;;9.50;99.90;;;;;;4951955;28;20986;-75
2023/05/01 02:02:38;;;;;;;7.93;6.20;;;9.40;99.90;;;;;;4952104;28;20874;-75
2023/05/01 02:05:11;;;;;;;8.90;6.67;;;9.40;99.90;;;;;;4951636;28;20958;-75
2023/05/01 02:07:39;;;;;;;13.10;6.57;;;9.30;99.90;;;;;;4951985;28;20848;-75
2023/05/01 02:10:08;;;;;;;9.00;6.90;;;9.30;99.90;;;;;;4951296;28;20484;-75
2023/05/01 02:12:36;;;;;;;7.90;6.23;;;9.30;99.90;;;;;;4952139;28;20461;-75
2023/05/01 02:15:05;;;;;;;9.10;5.83;;;9.20;99.90;;;;;;4951891;28;20454;-75
2023/05/01 02:17:32;;;;;;;9.87;6.47;;;9.20;99.90;;;;;;4951969;28;20470;-75
2023/05/01 02:20:00;;;;;;;9.50;6.40;;;9.20;99.90;;;;;;4951897;28;20482;-75
2023/05/01 02:22:29;;;;;;;13.37;6.80;;;9.20;99.90;;;;;;4951997;28;20816;-75
2023/05/01 02:24:57;;;;;;;10.03;6.60;;;9.10;99.90;;;;;;4951555;28;20885;-75
2023/05/01 02:27:29;;;;;;;9.50;6.87;;;9.00;99.90;;;;;;4951645;28;20457;-75
2023/05/01 02:29:56;;;;;;;10.73;6.70;;;9.00;99.90;;;;;;4952040;28;20501;-75
2023/05/01 02:32:23;;;;;;;12.00;6.80;;;9.00;99.90;;;;;;4951778;28;20520;-75
2023/05/01 02:34:49;;;;;;;7.67;5.90;;;9.00;99.90;;;;;;4951815;28;20517;-75
2023/05/01 02:37:16;;;;;;;11.43;6.70;;;9.00;99.90;;;;;;4952730;28;20470;-75
2023/05/01 02:39:44;;;;;;;10.87;6.70;;;9.00;99.90;;;;;;4955678;28;20569;-75
2023/05/01 02:42:13;;;;;;;8.07;5.83;;;9.00;99.90;;;;;;4954824;28;21028;-74
2023/05/01 02:44:43;;;;;;;8.20;5.43;;;9.00;99.90;;;;;;4955571;28;20487;-75
2023/05/01 02:47:12;;;;;;;12.80;6.77;;;9.00;99.90;;;;;;4954929;28;20474;-75
2023/05/01 02:49:39;;;;;;;10.20;6.50;;;9.00;99.90;;;;;;4955456;28;20525;-75
2023/05/01 02:52:07;;;;;;;7.70;5.70;;;9.00;99.90;;;;;;4955465;28;20454;-75
2023/05/01 02:54:34;;;;;;;16.70;7.33;;;9.00;99.90;;;;;;4954820;28;20465;-75
2023/05/01 02:57:05;;;;;;;12.63;6.70;;;9.00;99.90;;;;;;4955034;28;20981;-75
2023/05/01 02:59:32;;;;;;;8.67;6.20;;;9.00;99.90;;;;;;4955387;28;20473;-75
2023/05/01 03:01:59;;;;;;;9.70;6.33;;;8.90;99.90;;;;;;4954455;28;20482;-75
2023/05/01 03:04:25;;;;;;;15.27;6.73;;;8.90;99.90;;;;;;4955384;28;20458;-75
2023/05/01 03:06:52;;;;;;;9.00;6.03;;;8.90;99.90;;;;;;4954273;28;20466;-75
2023/05/01 03:09:19;;;;;;;7.33;6.03;;;9.00;99.90;;;;;;4954896;28;20499;-75
2023/05/01 03:11:46;;;;;;;12.80;6.47;;;9.00;99.90;;;;;;4955079;28;20524;-75
2023/05/01 03:14:14;;;;;;;11.50;6.50;;;9.00;99.90;;;;;;4946974;28;20465;-75
2023/05/01 03:16:40;;;;;;;8.60;6.50;;;9.00;99.90;;;;;;4954772;28;20948;-75
2023/05/01 03:19:07;;;;;;;9.00;5.97;;;9.10;99.90;;;;;;4954092;28;20553;-75
2023/05/01 03:21:35;;;;;;;11.97;6.27;;;9.10;99.90;;;;;;4954976;28;20470;-75
2023/05/01 03:24:02;;;;;;;13.63;6.40;;;9.10;99.90;;;;;;4954698;28;20499;-75
2023/05/01 03:26:28;;;;;;;10.17;6.13;;;9.10;99.90;;;;;;4954477;28;20464;-75
2023/05/01 03:28:55;;;;;;;12.47;7.30;;;9.10;99.90;;;;;;4954707;28;20497;-75
2023/05/01 03:31:23;;;;;;;7.67;6.63;;;9.10;99.90;;;;;;4954324;28;20478;-75
2023/05/01 03:33:50;;;;;;;9.00;6.70;;;9.10;99.90;;;;;;4953846;28;20462;-75
2023/05/01 03:36:16;;;;;;;7.90;6.40;;;9.10;99.90;;;;;;4954393;28;20809;-75
2023/05/01 03:38:43;;;;;;;9.63;6.07;;;9.10;99.90;;;;;;4954785;28;20858;-75
2023/05/01 03:41:10;;;;;;;13.57;6.30;;;9.10;99.90;;;;;;4954356;28;20490;-75
2023/05/01 03:43:36;;;;;;;11.53;6.77;;;9.10;99.90;;;;;;4954449;28;20533;-75
2023/05/01 03:46:03;;;;;;;7.00;6.27;;;9.10;99.90;;;;;;4954036;28;20458;-75
2023/05/01 03:48:31;;;;;;;8.13;6.50;;;9.10;99.90;;;;;;4953569;28;20481;-75
2023/05/01 03:50:57;;;;;;;9.67;6.30;;;9.10;99.90;;;;;;4953563;28;20477;-75
2023/05/01 03:53:24;;;;;;;9.10;6.47;;;9.10;99.90;;;;;;4954452;28;20872;-75
2023/05/01 03:55:51;;;;;;;7.40;6.53;;;9.10;99.90;;;;;;4954071;28;20887;-75
2023/05/01 03:58:17;;;;;;;7.63;6.07;;;9.10;99.90;;;;;;4954043;28;20461;-75
2023/05/01 04:00:44;;;;;;;9.87;6.30;;;9.10;99.90;;;;;;4954001;28;21021;-75
2023/05/01 04:03:11;;;;;;;10.17;6.60;;;9.10;99.90;;;;;;4953967;28;20532;-75
2023/05/01 04:05:40;;;;;;;9.23;6.77;;;9.10;99.90;;;;;;4953718;28;20939;-74
2023/05/01 04:08:07;;;;;;;8.33;6.10;;;9.00;99.90;;;;;;4952801;28;20541;-75
2023/05/01 04:10:34;;;;;;;8.60;6.83;;;9.00;99.90;;;;;;4954049;28;20474;-74
2023/05/01 04:13:01;;;;;;;12.83;7.17;;;9.00;99.90;;;;;;4953768;28;20525;-74
2023/05/01 04:15:28;;;;;;;7.90;6.53;;;9.00;99.90;;;;;;4953606;28;21182;-75
2023/05/01 04:17:55;;;;;;;7.60;6.00;;;9.00;99.90;;;;;;4953665;28;20453;-75
2023/05/01 04:20:22;;;;;;;9.23;6.33;;;9.00;99.90;;;;;;4946447;28;20481;-75
2023/05/01 04:22:50;;;;;;;9.87;6.53;;;9.00;99.90;;;;;;4953773;28;20446;-74
2023/05/01 04:25:17;;;;;;;13.40;6.87;;;9.00;99.90;;;;;;4945727;28;20454;-75
2023/05/01 04:27:44;;;;;;;8.53;6.40;;;9.00;99.90;;;;;;4954001;28;20458;-75
2023/05/01 04:30:11;;;;;;;11.43;6.40;;;8.90;99.90;;;;;;4953347;28;20498;-75
2023/05/01 04:32:37;;;;;;;9.60;6.07;;;8.90;99.90;;;;;;4953387;28;20939;-75
2023/05/01 04:35:04;;;;;;;8.20;6.00;;;8.90;99.90;;;;;;4952812;28;20466;-75
2023/05/01 04:37:31;;;;;;;11.70;6.37;;;9.00;99.90;;;;;;4953301;28;21005;-75
2023/05/01 04:39:59;;;;;;;10.47;6.53;;;9.00;99.90;;;;;;4952971;28;20475;-75
2023/05/01 04:42:30;;;;;;;11.60;6.30;;;8.90;99.90;;;;;;4953756;28;20461;-75
2023/05/01 04:45:00;;;;;;;10.90;6.53;;;8.90;99.90;;;;;;4953120;28;20453;-75
2023/05/01 04:47:27;;;;;;;7.40;5.87;;;8.90;99.90;;;;;;4953415;28;20469;-75
2023/05/01 04:49:53;;;;;;;11.30;6.57;;;9.00;99.90;;;;;;4952879;28;20548;-75
2023/05/01 04:52:20;;;;;;;9.50;6.60;;;9.00;99.90;;;;;;4952672;28;20465;-75
2023/05/01 04:54:46;;;;;;;8.00;6.10;;;9.00;99.90;;;;;;4953346;28;20454;-75
2023/05/01 04:57:15;;;;;;;8.57;6.40;;;9.10;99.90;;;;;;4953083;28;20885;-75
2023/05/01 04:59:42;;;;;;;11.77;6.83;;;9.10;99.90;;;;;;4952603;28;20569;-75
2023/05/01 05:02:08;;;;;;;11.70;6.13;;;9.20;99.90;;;;;;4952549;28;20470;-75
2023/05/01 05:04:35;;;;;;;10.50;6.33;;;9.30;99.90;;;;;;4953051;28;20950;-75
2023/05/01 05:07:02;;;;;;;8.50;5.40;;;9.30;99.90;;;;;;4952083;28;20500;-75
2023/05/01 05:09:28;;;;;;;9.63;6.47;;;9.30;99.90;;;;;;4952362;28;21010;-75
2023/05/01 05:11:55;;;;;;;14.00;6.43;;;9.30;99.90;;;;;;4952807;28;20458;-75
2023/05/01 05:14:23;;;;;;;8.23;5.77;;;9.30;99.90;;;;;;4952522;28;20517;-75
2023/05/01 05:16:50;;;;;;;7.80;5.77;;;9.40;99.90;;;;;;4952129;28;20461;-75
2023/05/01 05:19:17;;;;;;;6.17;5.57;;;9.40;99.90;;;;;;4952542;28;20839;-75
2023/05/01 05:21:43;;;;;;;8.15;5.30;;;9.50;99.90;;;;;;4952146;28;20447;-71
2023/05/01 05:24:10;;;;;;;13.90;6.47;;;9.50;99.90;;;;;;4952260;28;20302;-69
2023/05/01 05:26:37;;;;;;;9.20;6.03;;;9.50;99.90;;;;;;4952517;28;20458;-70
2023/05/01 05:29:03;;;;;;;15.93;6.60;;;9.60;99.90;;;;;;4952263;28;20924;-70
2023/05/01 05:31:31;;;;;;;10.23;5.80;;;9.70;99.90;;;;;;4952115;28;20517;-70
2023/05/01 05:33:58;;;;;;;13.27;6.47;;;9.80;99.90;;;;;;4952460;28;20457;-70
2023/05/01 05:36:26;;;;;;;10.90;6.17;;;9.90;99.90;;;;;;4952344;28;20461;-70
2023/05/01 05:38:53;;;;;;;8.83;6.60;;;10.00;99.90;;;;;;4952737;28;20466;-70
2023/05/01 05:41:20;;;;;;;6.77;5.53;;;10.00;99.90;;;;;;4951867;28;20532;-70
2023/05/01 05:43:47;;;;;;;11.13;6.27;;;10.10;99.90;;;;;;4952638;28;20899;-70
2023/05/01 05:46:13;;;;;;;16.77;6.50;;;10.20;99.90;;;;;;4951701;28;20461;-69
2023/05/01 05:48:41;;;;;;;11.00;6.23;;;10.30;99.90;;;;;;4952780;28;20547;-70
2023/05/01 05:51:08;;;;;;;9.13;6.73;;;10.30;99.90;;;;;;4952356;28;20481;-70
2023/05/01 05:53:34;;;;;;;8.27;5.97;;;10.40;99.90;;;;;;4952243;28;20942;-70
2023/05/01 05:56:01;;;;;;;8.20;5.37;;;10.40;99.90;;;;;;4952090;28;20462;-70
2023/05/01 05:58:28;;;;;;;8.80;5.67;;;10.50;99.90;;;;;;4951767;28;20500;-70
2023/05/01 06:00:55;;;;;;;7.80;6.00;;;10.60;99.90;;;;;;4951553;28;20478;-70
2023/05/01 06:03:22;;;;;;;7.60;5.43;;;10.70;99.90;;;;;;4944681;28;21341;-70
2023/05/01 06:05:50;;;;;;;16.63;5.87;;;10.90;99.90;;;;;;4952152;28;20497;-70
2023/05/01 06:08:16;;;;;;;9.87;5.83;;;11.00;99.90;;;;;;4951440;28;20469;-70
2023/05/01 06:10:44;;;;;;;11.83;5.70;;;11.00;99.90;;;;;;4951687;28;20997;-70
2023/05/01 06:13:11;;;;;;;9.10;6.07;;;11.10;99.90;;;;;;4954309;28;20457;-70
2023/05/01 06:15:38;;;;;;;9.80;5.90;;;11.20;99.90;;;;;;4955857;28;20453;-70
2023/05/01 06:18:05;;;;;;;12.40;5.00;;;11.30;99.90;;;;;;4955523;28;20457;-70
2023/05/01 06:20:32;;;;;;;10.20;5.07;;;11.40;99.90;;;;;;4955782;28;20477;-70
2023/05/01 06:23:00;;;;;;;8.07;4.90;;;11.50;99.90;;;;;;4955771;28;20504;-70
2023/05/01 06:25:26;;;;;;;7.77;5.40;;;11.70;99.90;;;;;;4955458;28;20450;-70
2023/05/01 06:27:53;;;;;;;7.83;5.33;;;11.80;99.90;;;;;;4955318;28;20461;-70
2023/05/01 06:30:20;;;;;;;6.10;4.77;;;11.90;99.90;;;;;;4955347;28;21076;-70
2023/05/01 06:32:47;;;;;;;10.70;6.40;;;12.00;99.90;;;;;;4955584;28;20461;-71
2023/05/01 06:35:14;;;;;;;8.70;5.30;;;12.10;99.90;;;;;;4955557;28;20458;-70
2023/05/01 06:37:41;;;;;;;8.53;5.50;;;12.20;99.90;;;;;;4955653;28;20873;-71
2023/05/01 06:40:10;;;;;;;9.07;5.50;;;12.30;99.90;;;;;;4954577;28;20481;-71
2023/05/01 06:42:37;;;;;;;7.90;5.00;;;12.30;99.90;;;;;;4954649;28;21036;-71
2023/05/01 06:45:04;;;;;;;8.90;5.40;;;12.40;99.90;;;;;;4955151;28;20460;-71
2023/05/01 06:47:31;;;;;;;8.43;5.00;;;12.60;99.90;;;;;;4955559;28;20450;-71
2023/05/01 06:49:58;;;;;;;9.63;5.60;;;12.70;99.90;;;;;;4955067;28;20539;-72
2023/05/01 06:52:24;;;;;;;8.00;5.40;;;12.80;99.90;;;;;;4955174;28;20449;-71
2023/05/01 06:54:51;;;;;;;10.93;5.90;;;13.00;99.90;;;;;;4955280;28;20524;-71
2023/05/01 06:57:19;;;;;;;5.53;5.00;;;13.10;99.90;;;;;;4954446;28;20453;-71
2023/05/01 06:59:46;;;;;;;5.60;5.07;;;13.20;99.90;;;;;;4955227;28;20532;-72
2023/05/01 07:02:12;;;;;;;9.43;5.70;;;13.30;99.90;;;;;;4953695;28;20942;-72
2023/05/01 07:04:39;;;;;;;9.90;5.63;;;13.50;99.90;;;;;;4954210;28;20465;-71
2023/05/01 07:07:05;;;;;;;7.03;6.00;;;13.60;99.90;;;;;;4950937;28;20450;-71
2023/05/01 07:09:32;;;;;;;8.77;5.70;;;13.70;99.90;;;;;;4954277;28;20551;-71
2023/05/01 07:11:59;;;;;;;8.23;5.20;;;13.80;99.90;;;;;;4954982;28;20466;-72
2023/05/01 07:14:27;;;;;;;10.20;6.30;;;14.00;99.90;;;;;;4953076;28;20970;-72
2023/05/01 07:16:54;;;;;;;7.70;5.47;;;14.10;99.90;;;;;;4950694;28;20493;-71
2023/05/01 07:19:21;;;;;;;9.80;6.07;;;14.00;99.90;;;;;;4954023;28;20550;-71
2023/05/01 07:21:47;;;;;;;9.97;6.10;;;14.00;99.90;;;;;;4953796;28;20508;-71
2023/05/01 07:24:15;;;;;;;9.50;6.00;;;14.00;99.90;;;;;;4954449;28;20484;-71
2023/05/01 07:26:42;;;;;;;6.93;5.53;;;14.10;99.90;;;;;;4954399;28;20515;-72
2023/05/01 07:29:08;;;;;;;7.83;5.40;;;14.20;99.90;;;;;;4953187;28;20478;-72
2023/05/01 07:31:37;;;;;;;13.43;6.30;;;14.40;99.90;;;;;;4955479;28;21016;-71
2023/05/01 07:34:04;;;;;;;10.70;6.40;;;14.50;99.90;;;;;;4953827;28;20465;-71
2023/05/01 07:36:32;;;;;;;12.97;7.10;;;14.60;99.90;;;;;;4954453;28;20497;-72
2023/05/01 07:38:59;;;;;;;9.20;5.80;;;14.80;99.90;;;;;;4954268;28;20474;-68
2023/05/01 07:41:26;;;;;;;7.73;5.83;;;15.10;99.90;;;;;;4953969;28;20536;-68
2023/05/01 07:43:53;;;;;;;8.93;6.23;;;15.60;99.90;;;;;;4953546;28;20520;-68
2023/05/01 07:46:19;;;;;;;13.47;6.10;;;15.90;99.90;;;;;;4952666;28;20981;-68
2023/05/01 07:48:47;;;;;;;10.23;6.73;;;16.20;99.90;;;;;;4953335;28;20469;-68
2023/05/01 07:51:14;;;;;;;9.13;5.90;;;16.30;99.90;;;;;;4953884;28;20528;-68
2023/05/01 07:53:41;;;;;;;12.73;6.50;;;16.40;99.90;;;;;;4954107;28;20458;-68
2023/05/01 07:56:08;;;;;;;11.40;6.15;;;16.10;99.90;;;;;;4953095;28;20967;-71
2023/05/01 07:58:35;;;;;;;12.67;6.43;;;15.80;99.90;;;;;;4952996;28;20206;-71
2023/05/01 08:01:03;;;;;;;8.23;6.33;;;15.60;99.90;;;;;;4953571;28;20477;-72
2023/05/01 08:03:29;;;;;;;9.27;7.20;;;15.50;99.90;;;;;;4953554;28;20454;-71
2023/05/01 08:05:58;;;;;;;11.33;6.80;;;15.60;99.90;;;;;;4953795;28;20462;-72
2023/05/01 08:08:25;;;;;;;9.40;6.73;;;15.70;99.90;;;;;;4953306;28;20958;-72
2023/05/01 08:10:52;;;;;;;8.13;6.17;;;15.60;99.90;;;;;;4953276;28;20572;-71
2023/05/01 08:13:18;;;;;;;8.93;6.87;;;15.60;99.90;;;;;;4953403;28;20466;-71
2023/05/01 08:15:46;;;;;;;9.50;7.00;;;15.80;99.90;;;;;;4953227;28;20462;-71
2023/05/01 08:18:18;;;;;;;9.00;6.13;;;16.10;99.90;;;;;;4952615;28;20473;-71
2023/05/01 08:20:45;;;;;;;9.00;6.97;;;16.30;99.90;;;;;;4953552;28;20489;-71
2023/05/01 08:23:14;;;;;;;8.23;6.80;;;16.40;99.90;;;;;;4952708;28;20468;-71
2023/05/01 08:25:40;;;;;;;10.87;6.67;;;16.60;99.90;;;;;;4952702;28;20453;-72
2023/05/01 08:28:07;;;;;;;9.03;7.37;;;16.70;99.90;;;;;;4953596;28;20469;-72
2023/05/01 08:30:33;;;;;;;13.83;6.97;;;16.70;99.90;;;;;;4953613;28;20493;-72
2023/05/01 08:33:00;;;;;;;10.83;7.27;;;16.50;99.90;;;;;;4952310;28;20465;-73
2023/05/01 08:35:28;;;;;;;17.90;7.40;;;16.30;99.90;;;;;;4950847;28;20478;-71
2023/05/01 08:37:54;;;;;;;9.40;7.20;;;16.50;99.90;;;;;;4953227;28;20954;-72
2023/05/01 08:40:23;;;;;;;8.97;6.70;;;16.80;99.90;;;;;;4953169;28;20474;-72
2023/05/01 08:42:51;;;;;;;8.53;6.67;;;17.20;99.90;;;;;;4957620;28;20496;-72
2023/05/01 08:45:20;;;;;;;12.80;6.70;;;17.50;99.90;;;;;;4952628;28;20435;-72
2023/05/01 08:47:48;;;;;;;11.15;6.95;;;17.30;99.90;;;;;;4952833;28;20471;-69
2023/05/01 08:50:17;;;;;;;11.47;7.47;;;17.20;99.90;;;;;;4951536;28;20761;-70
2023/05/01 08:52:44;;;;;;;11.97;6.53;;;17.40;99.90;;;;;;4952401;28;20469;-69
2023/05/01 08:55:13;;;;;;;9.47;6.80;;;17.80;99.90;;;;;;4952357;28;20476;-69
2023/05/01 08:57:45;;;;;;;8.50;6.77;;;18.10;99.90;;;;;;4952978;28;20436;-69
2023/05/01 09:00:17;;;;;;;11.90;7.10;;;18.30;99.90;;;;;;4951592;28;20455;-70
2023/05/01 09:02:46;;;;;;;12.23;5.93;;;18.70;99.90;;;;;;4950934;28;20434;-69
2023/05/01 09:05:15;;;;;;;11.70;6.20;;;18.70;99.90;;;;;;4952318;28;20211;-69
2023/05/01 09:07:42;;;;;;;11.60;6.23;;;18.70;99.90;;;;;;4953127;28;20508;-69
2023/05/01 09:10:11;;;;;;;7.03;5.90;;;18.80;99.90;;;;;;4952485;28;20497;-69
2023/05/01 09:12:38;;;;;;;8.63;6.70;;;18.80;99.90;;;;;;4952089;28;20458;-69
2023/05/01 09:15:08;;;;;;;10.67;6.30;;;18.70;99.90;;;;;;4951745;28;20428;-69
2023/05/01 09:17:36;;;;;;;10.53;6.30;;;18.40;99.90;;;;;;4951506;28;20457;-69
2023/05/01 09:20:04;;;;;;;8.50;6.53;;;18.20;99.90;;;;;;4947499;28;20971;-69
2023/05/01 09:22:32;;;;;;;10.07;7.13;;;18.00;99.90;;;;;;4950157;28;20515;-69
2023/05/01 09:24:59;;;;;;;13.23;6.53;;;17.90;99.90;;;;;;4953040;28;20440;-70
2023/05/01 09:27:27;;;;;;;11.10;7.47;;;17.80;99.90;;;;;;4957213;28;20944;-70
2023/05/01 09:29:53;;;;;;;8.70;6.03;;;17.80;99.90;;;;;;4958228;28;20467;-70
2023/05/01 09:32:26;;;;;;;9.35;5.90;;;17.80;99.90;;;;;;4957168;28;20992;-72
2023/05/01 09:34:54;;;;;;;9.33;6.90;;;17.70;99.90;;;;;;4958047;28;20236;-72
2023/05/01 09:37:29;;;;;;;7.80;6.87;;;17.60;99.90;;;;;;4958043;28;20469;-71
2023/05/01 09:40:07;;;;;;;9.37;7.27;;;17.20;99.90;;;;;;4958367;28;20485;-71
2023/05/01 09:42:36;;;;;;;7.20;6.30;;;17.10;99.90;;;;;;4958534;28;20432;-72
2023/05/01 09:45:04;;;;;;;8.80;6.97;;;17.10;99.90;;;;;;4958602;28;20440;-72
2023/05/01 09:47:33;;;;;;;9.07;7.30;;;17.00;99.90;;;;;;4958139;28;20501;-72
2023/05/01 09:50:00;;;;;;;7.50;6.30;;;17.20;99.90;;;;;;4957126;28;20522;-72
2023/05/01 09:52:28;;;;;;;9.10;6.50;;;17.30;99.90;;;;;;4957436;28;20469;-72
2023/05/01 09:55:14;;;;;;;8.50;6.83;;;17.60;99.90;;;;;;4958784;28;21007;-71
2023/05/01 09:57:42;;;;;;;14.03;7.23;;;17.90;99.90;;;;;;4958086;28;20513;-71
2023/05/01 10:00:09;;;;;;;11.63;6.40;;;18.10;99.90;;;;;;4957639;28;20857;-71
2023/05/01 10:02:38;;;;;;;8.93;6.50;;;18.40;99.90;;;;;;4958212;28;20486;-72
2023/05/01 10:05:06;;;;;;;11.10;6.57;;;18.50;99.90;;;;;;4954249;28;20491;-71
2023/05/01 10:07:33;;;;;;;13.33;7.10;;;18.30;99.90;;;;;;4955939;28;21057;-71
2023/05/01 10:10:14;;;;;;;11.50;6.10;;;18.20;99.90;;;;;;4956530;28;20499;-71
2023/05/01 10:12:41;;;;;;;11.13;6.50;;;18.00;99.90;;;;;;4957574;28;20427;-70
2023/05/01 10:15:09;;;;;;;8.50;6.30;;;18.00;99.90;;;;;;4956980;28;20465;-71
2023/05/01 10:17:38;;;;;;;7.97;5.97;;;18.10;99.90;;;;;;4957870;28;20436;-71
2023/05/01 10:20:06;;;;;;;8.30;6.03;;;18.30;99.90;;;;;;4956142;28;20513;-71
2023/05/01 10:22:33;;;;;;;9.13;5.90;;;18.30;99.90;;;;;;4957226;28;21004;-71
2023/05/01 10:25:01;;;;;;;8.70;5.43;;;18.40;99.90;;;;;;4956530;28;20463;-71
2023/05/01 10:27:28;;;;;;;6.73;5.60;;;18.30;99.90;;;;;;4955985;28;20969;-71
2023/05/01 10:29:55;;;;;;;11.50;6.40;;;18.20;99.90;;;;;;4956689;28;21044;-71
2023/05/01 10:32:22;;;;;;;6.33;5.73;;;18.00;99.90;;;;;;4956625;28;20460;-71
2023/05/01 10:35:00;;;;;;;7.87;5.97;;;18.10;99.90;;;;;;4957623;28;21079;-72
2023/05/01 10:37:33;;;;;;;7.43;5.60;;;18.30;99.90;;;;;;4956592;28;20443;-72
2023/05/01 10:40:00;;;;;;;6.80;5.90;;;18.30;99.90;;;;;;4956632;28;21011;-71
2023/05/01 10:42:27;;;;;;;8.63;5.50;;;18.20;99.90;;;;;;4956266;28;20455;-71
2023/05/01 10:45:30;;;;;;;8.43;6.67;;;18.00;99.90;;;;;;4957049;28;20212;-71
2023/05/01 10:47:56;;;;;;;8.40;6.60;;;17.80;99.90;;;;;;4956243;28;20452;-71
2023/05/01 10:50:25;;;;;;;7.17;6.10;;;17.90;99.90;;;;;;4954615;28;20498;-72
2023/05/01 10:53:16;;;;;;;7.73;6.03;;;18.20;99.90;;;;;;4956353;28;20956;-71
2023/05/01 10:55:44;;;;;;;8.83;6.13;;;18.50;99.90;;;;;;4955833;28;20439;-71
2023/05/01 10:58:11;;;;;;;8.60;6.00;;;18.60;99.90;;;;;;4957032;28;20436;-72
2023/05/01 11:00:38;;;;;;;6.43;5.83;;;18.60;99.90;;;;;;4959153;28;21051;-72
2023/05/01 11:03:38;;;;;;;6.27;5.67;;;18.80;99.90;;;;;;4960150;28;20452;-71
2023/05/01 11:06:07;;;;;;;6.40;5.80;;;18.50;99.90;;;;;;4959020;28;20435;-72
2023/05/01 11:08:36;;;;;;;17.50;6.10;;;18.50;99.90;;;;;;4960015;28;20466;-72
2023/05/01 11:11:40;;;;;;;7.40;6.40;;;18.50;99.90;;;;;;4958833;28;20493;-72
2023/05/01 11:14:09;;;;;;;5.97;5.13;;;18.70;99.90;;;;;;4960011;28;20428;-72
2023/05/01 11:16:45;;;;;;;12.27;5.28;;;18.70;99.90;;;;;;4959487;28;20445;-69
2023/05/01 11:19:49;;;;;;;6.75;5.30;;;18.60;99.90;;;;;;4958967;28;20518;-69
2023/05/01 11:22:17;;;;;;;6.47;4.70;;;18.60;99.90;;;;;;4958840;28;20446;-68
2023/05/01 11:24:43;;;;;;;8.60;5.30;;;18.50;99.90;;;;;;4959681;28;20265;-66
2023/05/01 11:27:16;;;;;;;7.60;6.37;;;18.50;99.90;;;;;;4960004;28;20452;-70
2023/05/01 11:29:48;;;;;;;6.13;5.50;;;18.60;99.90;;;;;;4959736;28;20533;-70
2023/05/01 11:32:28;;;;;;;6.70;5.87;;;18.60;99.90;;;;;;4959830;28;20493;-69
2023/05/01 11:34:57;;;;;;;7.23;6.00;;;18.60;99.90;;;;;;4958995;28;20523;-69
2023/05/01 11:37:40;;;;;;;9.30;5.50;;;18.40;99.90;;;;;;4959165;28;20944;-69
2023/05/01 11:40:19;;;;;;;6.10;5.50;;;18.50;99.90;;;;;;4959311;28;20466;-69
2023/05/01 11:42:46;;;;;;;5.70;5.30;;;18.70;99.90;;;;;;4958552;28;21880;-68
2023/05/01 11:45:13;;;;;;;8.10;6.33;;;18.80;99.90;;;;;;4959742;28;20423;-68
2023/05/01 11:47:40;;;;;;;10.40;5.80;;;18.80;99.90;;;;;;4960159;28;21029;-68
2023/05/01 11:50:09;;;;;;;6.87;5.40;;;18.70;99.90;;;;;;4959310;28;20501;-68
2023/05/01 11:52:43;;;;;;;6.77;5.70;;;18.70;99.90;;;;;;4960388;28;20456;-69
2023/05/01 11:55:10;;;;;;;6.53;5.07;;;18.80;99.90;;;;;;4958213;28;20454;-69
2023/05/01 11:57:46;;;;;;;6.97;5.83;;;18.80;99.90;;;;;;4958668;28;20210;-69
2023/05/01 12:00:14;;;;;;;8.50;6.10;;;18.70;99.90;;;;;;4958824;28;20538;-68
2023/05/01 12:02:54;;;;;;;11.63;6.00;;;18.60;99.90;;;;;;4959592;28;20432;-68
2023/05/01 12:05:23;;;;;;;10.80;6.53;;;18.50;99.90;;;;;;4959604;28;20436;-69
2023/05/01 12:07:50;;;;;;;7.40;5.70;;;18.50;99.90;;;;;;4960211;28;20453;-68
2023/05/01 12:10:17;;;;;;;7.00;4.63;;;18.30;99.90;;;;;;4954567;28;20508;-69
2023/05/01 12:12:44;;;;;;;9.43;5.90;;;18.30;99.90;;;;;;4959611;28;20578;-69
2023/05/01 12:15:11;;;;;;;11.40;5.70;;;18.20;99.90;;;;;;4958334;28;20458;-69
2023/05/01 12:17:38;;;;;;;8.03;5.93;;;18.10;99.90;;;;;;4958637;28;20958;-69
2023/05/01 12:20:06;;;;;;;6.93;5.60;;;18.00;99.90;;;;;;4958780;28;20448;-69
2023/05/01 12:22:34;;;;;;;7.70;5.90;;;18.00;99.90;;;;;;4959101;28;20428;-69
2023/05/01 12:25:01;;;;;;;8.30;5.57;;;18.00;99.90;;;;;;4957442;28;20436;-69
2023/05/01 12:27:27;;;;;;;5.87;5.37;;;18.00;99.90;;;;;;4959061;28;20474;-69
2023/05/01 12:29:55;;;;;;;7.70;6.07;;;17.90;99.90;;;;;;4958234;28;20513;-69
2023/05/01 12:32:31;;;;;;;6.67;5.97;;;18.00;99.90;;;;;;4958308;28;20460;-69
2023/05/01 12:34:57;;;;;;;11.47;6.57;;;17.90;99.90;;;;;;4958849;28;20464;-68
2023/05/01 12:37:31;;;;;;;8.25;5.22;;;17.80;99.90;;;;;;4957838;28;20518;-72
2023/05/01 12:39:59;;;;;;;6.82;4.93;;;17.80;99.90;;;;;;4958005;28;20540;-69
2023/05/01 12:42:26;;;;;;;8.50;6.43;;;17.70;99.90;;;;;;4959270;28;20218;-69
2023/05/01 12:44:59;;;;;;;10.70;6.23;;;17.60;99.90;;;;;;4958613;28;20457;-70
2023/05/01 12:47:26;;;;;;;6.03;5.53;;;17.70;99.90;;;;;;4958603;28;20441;-69
2023/05/01 12:50:02;;;;;;;12.57;5.20;;;17.80;99.90;;;;;;4958570;28;20472;-69
2023/05/01 12:52:28;;;;;;;10.17;8.03;;;17.90;99.90;;;;;;4958737;28;20506;-69
2023/05/01 12:55:04;;;;;;;12.60;9.83;;;17.90;99.90;;;;;;4957891;28;20462;-69
2023/05/01 12:57:31;;;;;;;7.10;6.40;;;18.00;99.90;;;;;;4957679;28;20471;-68